Terminal Aerodrome Forecast
Issued by NWS

Home | Current Version | Previous Version | Text Only | Print | Product List | Glossary On
Versions: 1 2 3 4 5 6 7 8 9 10 11 12 13 14
000
FTUS45 KTFX 301100
TAFBZN
TAF
KBZN 301120Z 3012/3112 VRB05KT P6SM VCSH BKN090
      TEMPO 3012/3015 -SHRA BKN060
     FM301900 29008KT P6SM VCSH SCT050 BKN080
      TEMPO 3019/3023 VRB15G25KT -TSRA OVC050CB
     FM310500 VRB05KT P6SM SCT060 BKN100=

USA.gov is the U.S. government's official web portal to all federal, state and local government web resources and services.